Time;durP1;ratioP1;P1;durP2;ratioP2;P2;SDS_P1;SDS_P2;PMS_P1;PMS_P2;Temp;Humidity;BMP_temperature;BMP_pressure;BME280_temperature;BME280_humidity;BME280_pressure;Samples;Min_cycle;Max_cycle;Signal;HPM_P1;HPM_P2
2023/06/18 00:02:25;;;;;;;10.98;7.65;;;;;;;18.45;82.25;99759.22;5048907;28;20053;-66
2023/06/18 00:04:50;;;;;;;14.25;7.63;;;;;;;18.42;81.88;99754.06;5047980;28;20029;-66
2023/06/18 00:07:16;;;;;;;10.80;7.35;;;;;;;18.35;81.35;99750.91;5048812;28;20017;-66
2023/06/18 00:09:41;;;;;;;10.80;8.00;;;;;;;18.29;81.25;99752.16;5048130;28;20036;-65
2023/06/18 00:12:07;;;;;;;13.32;9.10;;;;;;;18.30;81.76;99767.34;5049060;28;20425;-66
2023/06/18 00:14:32;;;;;;;12.95;7.80;;;;;;;18.26;81.92;99765.84;5049582;28;20020;-66
2023/06/18 00:16:58;;;;;;;12.50;8.18;;;;;;;18.23;82.40;99762.50;5030932;28;20127;-66
2023/06/18 00:19:23;;;;;;;12.82;7.65;;;;;;;18.21;82.90;99765.28;5050518;28;20166;-66
2023/06/18 00:21:49;;;;;;;10.07;7.47;;;;;;;18.20;83.15;99758.16;5030721;28;20055;-66
2023/06/18 00:24:14;;;;;;;13.60;7.60;;;;;;;18.23;83.31;99751.72;5049304;28;20028;-66
2023/06/18 00:26:40;;;;;;;10.32;7.88;;;;;;;18.26;83.56;99747.00;5049764;28;20036;-66
2023/06/18 00:29:06;;;;;;;9.73;7.30;;;;;;;18.30;83.40;99740.41;5049326;28;20149;-66
2023/06/18 00:31:32;;;;;;;11.70;7.82;;;;;;;18.28;84.04;99746.88;5047810;28;20032;-66
2023/06/18 00:34:05;;;;;;;11.73;8.30;;;;;;;18.24;84.05;99742.66;5047417;28;20115;-66
2023/06/18 00:36:31;;;;;;;9.70;7.53;;;;;;;18.18;84.59;99748.47;5048439;28;20032;-66
2023/06/18 00:38:57;;;;;;;9.77;7.60;;;;;;;18.15;85.52;99748.69;5048042;28;20029;-66
2023/06/18 00:41:27;;;;;;;12.77;8.13;;;;;;;18.13;85.77;99746.09;5049420;28;20044;-66
2023/06/18 00:43:53;;;;;;;11.65;7.75;;;;;;;18.11;86.44;99739.06;5049564;28;20021;-67
2023/06/18 00:46:19;;;;;;;14.02;7.75;;;;;;;18.10;86.18;99742.75;5049259;28;20036;-66
2023/06/18 00:48:45;;;;;;;10.60;7.82;;;;;;;18.05;85.99;99748.44;5049430;28;20032;-66
2023/06/18 00:51:12;;;;;;;12.10;8.45;;;;;;;17.82;85.60;99707.88;5045927;28;20021;-66
2023/06/18 00:53:37;;;;;;;12.00;8.10;;;;;;;18.03;85.69;99747.69;5049525;28;20532;-66
2023/06/18 00:56:03;;;;;;;12.05;8.80;;;;;;;18.03;86.06;99745.00;5050695;28;20037;-66
2023/06/18 00:58:28;;;;;;;11.10;8.18;;;;;;;18.00;86.18;99741.63;5049377;28;20079;-66
2023/06/18 01:00:54;;;;;;;9.60;7.38;;;;;;;17.94;86.40;99748.28;5049812;28;20032;-66
2023/06/18 01:03:21;;;;;;;10.13;7.63;;;;;;;17.88;86.96;99745.13;5037019;28;20033;-66
2023/06/18 01:05:51;;;;;;;11.20;7.60;;;;;;;17.84;86.84;99743.63;5039851;28;20075;-66
2023/06/18 01:08:17;;;;;;;13.50;8.90;;;;;;;17.83;86.94;99748.16;5034205;28;20029;-66
2023/06/18 01:10:44;;;;;;;11.55;8.23;;;;;;;17.77;87.54;99735.09;5035675;28;20013;-66
2023/06/18 01:13:14;;;;;;;12.93;8.77;;;;;;;17.86;88.11;99752.44;5034896;28;20092;-66
2023/06/18 01:15:40;;;;;;;13.30;9.20;;;;;;;17.83;88.69;99748.16;5052006;28;20079;-66
2023/06/18 01:18:07;;;;;;;11.60;8.25;;;;;;;17.77;88.98;99732.41;5051831;28;20044;-66
2023/06/18 01:20:40;;;;;;;13.00;8.80;;;;;;;17.64;89.51;99712.69;5051917;28;20122;-66
2023/06/18 01:23:14;;;;;;;14.05;8.85;;;;;;;17.80;89.33;99742.97;5035699;28;20037;-66
2023/06/18 01:25:43;;;;;;;12.00;8.73;;;;;;;17.79;89.79;99748.47;5048343;28;20102;-66
2023/06/18 01:28:08;;;;;;;11.43;7.82;;;;;;;17.76;89.81;99737.91;5049471;28;20247;-66
2023/06/18 01:30:37;;;;;;;10.73;8.65;;;;;;;17.74;90.08;99735.28;5049823;28;20047;-66
2023/06/18 01:33:03;;;;;;;11.80;8.35;;;;;;;17.72;90.03;99737.25;5035864;28;20108;-66
2023/06/18 01:35:29;;;;;;;10.57;7.65;;;;;;;17.68;90.72;99743.78;5055116;28;20017;-66
2023/06/18 01:38:32;;;;;;;9.70;8.00;;;;;;;17.68;90.79;99727.63;5057577;28;20058;-66
2023/06/18 01:41:08;;;;;;;13.15;8.98;;;;;;;17.64;91.13;99736.88;5057938;28;20032;-66
2023/06/18 01:44:06;;;;;;;12.07;8.40;;;;;;;17.64;91.19;99742.25;5057936;28;20029;-66
2023/06/18 01:46:31;;;;;;;13.13;8.85;;;;;;;17.64;91.39;99747.66;5049062;28;20115;-66
2023/06/18 01:49:00;;;;;;;14.75;8.70;;;;;;;17.65;91.55;99743.97;5057261;28;20079;-66
2023/06/18 01:51:27;;;;;;;11.73;8.35;;;;;;;17.66;91.96;99745.69;5055976;28;20025;-66
2023/06/18 01:53:56;;;;;;;12.50;8.50;;;;;;;17.62;91.92;99729.88;5057538;28;20441;-66
2023/06/18 01:56:22;;;;;;;13.95;9.20;;;;;;;17.63;92.01;99740.53;5056971;28;20425;-66
2023/06/18 01:58:48;;;;;;;15.68;8.65;;;;;;;17.64;91.93;99753.03;5057689;28;20052;-66
2023/06/18 02:01:13;;;;;;;17.40;9.63;;;;;;;17.59;91.47;99747.09;5057282;28;20081;-66
2023/06/18 02:03:40;;;;;;;65.40;13.68;;;;;;;17.48;91.00;99743.38;5055704;28;20043;-66
2023/06/18 02:06:07;;;;;;;49.63;10.93;;;;;;;17.37;91.15;99744.00;5054975;28;20721;-66
2023/06/18 02:08:33;;;;;;;35.33;10.43;;;;;;;17.30;91.13;99737.28;5060332;28;20029;-65
2023/06/18 02:10:58;;;;;;;27.48;10.50;;;;;;;17.28;91.07;99743.75;5061381;28;20024;-65
2023/06/18 02:13:24;;;;;;;23.13;10.10;;;;;;;17.28;91.28;99744.59;5059572;28;20021;-65
2023/06/18 02:15:49;;;;;;;18.60;10.05;;;;;;;17.26;91.80;99751.91;5060130;28;20039;-66
2023/06/18 02:18:15;;;;;;;18.40;8.95;;;;;;;17.26;91.57;99753.72;5060161;28;20043;-65
2023/06/18 02:20:41;;;;;;;16.88;8.57;;;;;;;17.27;91.75;99755.44;5056702;28;20456;-66
2023/06/18 02:23:07;;;;;;;18.60;9.00;;;;;;;17.28;92.52;99765.25;5059646;28;20142;-65
2023/06/18 02:25:33;;;;;;;14.80;9.30;;;;;;;17.26;92.65;99762.66;5059547;28;20032;-65
2023/06/18 02:28:00;;;;;;;16.90;9.60;;;;;;;17.22;92.75;99754.88;5058153;28;20052;-65
2023/06/18 02:30:26;;;;;;;15.82;9.10;;;;;;;17.17;92.91;99757.84;5061270;28;20445;-65
2023/06/18 02:32:52;;;;;;;14.63;8.80;;;;;;;17.12;92.89;99753.75;5058708;28;20067;-65
2023/06/18 02:35:18;;;;;;;14.05;9.40;;;;;;;17.11;93.43;99750.19;5057219;28;20067;-65
2023/06/18 02:37:43;;;;;;;15.10;9.07;;;;;;;17.12;93.58;99754.59;5057809;28;20669;-66
2023/06/18 02:40:11;;;;;;;13.10;8.00;;;;;;;17.09;93.99;99758.34;5058560;28;20051;-66
2023/06/18 02:42:36;;;;;;;16.30;9.45;;;;;;;17.12;94.00;99756.44;5057995;28;20029;-66
2023/06/18 02:45:02;;;;;;;18.15;9.43;;;;;;;17.15;93.58;99750.88;5057840;28;20028;-66
2023/06/18 02:47:28;;;;;;;14.10;9.70;;;;;;;17.11;94.38;99752.88;5059605;28;20024;-65
2023/06/18 02:49:53;;;;;;;13.70;8.57;;;;;;;17.06;94.06;99730.81;5060792;28;20035;-66
2023/06/18 02:52:19;;;;;;;10.02;8.15;;;;;;;17.09;94.83;99746.72;5060427;28;20028;-66
2023/06/18 02:54:44;;;;;;;13.60;9.13;;;;;;;17.08;95.20;99747.72;5055820;28;20108;-66
2023/06/18 02:57:10;;;;;;;14.20;8.73;;;;;;;17.06;94.99;99739.75;5056871;28;20021;-66
2023/06/18 02:59:35;;;;;;;14.80;9.20;;;;;;;17.01;94.62;99740.97;5059699;28;20052;-66
2023/06/18 03:02:04;;;;;;;12.43;8.35;;;;;;;17.01;94.87;99741.84;5058454;28;20112;-66
2023/06/18 03:04:30;;;;;;;13.38;9.20;;;;;;;16.93;94.16;99730.69;5055913;28;20064;-67
2023/06/18 03:06:57;;;;;;;13.65;9.07;;;;;;;16.93;94.16;99735.22;5056236;28;20071;-66
2023/06/18 03:09:23;;;;;;;11.27;8.52;;;;;;;16.87;93.75;99747.22;5054971;28;20036;-66
2023/06/18 03:11:48;;;;;;;13.40;8.32;;;;;;;16.82;93.31;99749.31;5055011;28;20076;-66
2023/06/18 03:14:13;;;;;;;13.27;9.15;;;;;;;16.83;92.85;99752.88;5057204;28;20377;-66
2023/06/18 03:16:39;;;;;;;10.57;8.23;;;;;;;16.78;92.66;99745.13;5057593;28;20028;-66
2023/06/18 03:19:04;;;;;;;15.13;9.35;;;;;;;16.79;92.95;99748.66;5057116;28;20517;-66
2023/06/18 03:21:30;;;;;;;18.80;9.30;;;;;;;16.81;92.24;99754.78;5056181;28;20060;-66
2023/06/18 03:23:55;;;;;;;17.05;9.02;;;;;;;16.75;92.36;99753.34;5053113;28;20041;-66
2023/06/18 03:26:21;;;;;;;17.35;9.23;;;;;;;16.73;92.85;99749.03;5056586;28;20036;-66
2023/06/18 03:28:47;;;;;;;16.73;8.68;;;;;;;16.73;93.50;99754.41;5055678;28;20021;-66
2023/06/18 03:31:13;;;;;;;17.98;9.45;;;;;;;16.75;93.76;99761.41;5056379;28;20027;-66
2023/06/18 03:33:38;;;;;;;16.05;9.35;;;;;;;16.82;93.60;99759.19;5054190;28;20039;-66
2023/06/18 03:36:05;;;;;;;16.10;8.55;;;;;;;16.79;93.51;99770.13;5053635;28;20546;-66
2023/06/18 03:38:31;;;;;;;15.88;9.90;;;;;;;16.80;93.38;99770.03;5051756;28;20052;-66
2023/06/18 03:40:56;;;;;;;15.77;9.35;;;;;;;16.83;93.24;99763.63;5054364;28;20060;-65
2023/06/18 03:43:22;;;;;;;14.90;10.02;;;;;;;16.81;93.49;99770.91;5055425;28;20032;-65
2023/06/18 03:45:47;;;;;;;15.93;9.25;;;;;;;16.80;94.38;99769.19;5053534;28;20032;-65
2023/06/18 03:48:13;;;;;;;14.13;9.50;;;;;;;16.73;94.68;99763.34;5053219;28;20033;-66
2023/06/18 03:50:38;;;;;;;14.93;9.73;;;;;;;16.74;95.12;99770.44;5052506;28;20025;-65
2023/06/18 03:53:04;;;;;;;13.43;9.27;;;;;;;16.71;94.40;99761.69;5048247;28;20021;-65
2023/06/18 03:55:29;;;;;;;12.82;8.65;;;;;;;16.74;94.56;99766.88;5051311;28;20021;-65
2023/06/18 03:57:55;;;;;;;12.95;8.63;;;;;;;16.77;95.04;99769.38;5047985;28;20361;-65
2023/06/18 04:00:20;;;;;;;10.65;8.73;;;;;;;16.80;95.54;99763.81;5053897;28;20028;-66
2023/06/18 04:02:46;;;;;;;15.50;9.07;;;;;;;16.79;95.53;99773.69;5053611;28;20057;-66
2023/06/18 04:05:12;;;;;;;22.40;10.02;;;;;;;16.85;95.20;99772.47;5051163;28;20043;-65
2023/06/18 04:07:38;;;;;;;14.50;10.20;;;;;;;16.92;94.93;99773.78;5050750;28;20083;-65
2023/06/18 04:10:03;;;;;;;11.35;8.93;;;;;;;16.96;95.04;99772.66;5049734;28;20036;-65
2023/06/18 04:12:29;;;;;;;19.17;10.40;;;;;;;16.96;95.00;99769.97;5051351;28;20103;-65
2023/06/18 04:14:54;;;;;;;14.43;9.18;;;;;;;17.04;94.69;99767.66;5051221;28;20099;-65
2023/06/18 04:17:20;;;;;;;11.88;9.02;;;;;;;17.11;94.72;99769.00;5051367;28;20116;-65
2023/06/18 04:19:45;;;;;;;11.85;9.50;;;;;;;17.15;94.50;99765.16;5050981;28;20476;-65
2023/06/18 04:22:10;;;;;;;13.23;8.80;;;;;;;17.20;94.31;99771.09;5051829;28;20039;-65
2023/06/18 04:24:36;;;;;;;12.43;8.45;;;;;;;17.25;94.47;99766.28;5051113;28;20159;-65
2023/06/18 04:27:01;;;;;;;13.15;8.88;;;;;;;17.22;94.30;99761.13;5050719;28;20036;-65
2023/06/18 04:29:26;;;;;;;13.38;8.93;;;;;;;17.31;94.57;99776.69;5050419;28;20017;-65
2023/06/18 04:31:52;;;;;;;12.13;9.38;;;;;;;17.30;95.05;99763.34;5051975;28;20029;-65
2023/06/18 04:34:17;;;;;;;12.00;9.18;;;;;;;17.40;94.60;99764.44;5051213;28;20550;-65
2023/06/18 04:36:43;;;;;;;13.48;9.63;;;;;;;17.49;94.24;99761.22;5056073;28;20056;-65
2023/06/18 04:39:09;;;;;;;36.28;9.73;;;;;;;17.58;93.71;99761.47;5056427;28;20082;-65
2023/06/18 04:41:34;;;;;;;16.45;9.50;;;;;;;17.70;93.21;99754.44;5055636;28;20029;-65
2023/06/18 04:43:59;;;;;;;15.27;9.57;;;;;;;17.87;92.88;99754.19;5056554;28;20033;-65
2023/06/18 04:46:25;;;;;;;16.88;10.10;;;;;;;18.05;92.12;99753.84;5057385;28;20499;-65
2023/06/18 04:48:50;;;;;;;15.90;9.93;;;;;;;18.21;91.49;99754.53;5055065;28;20024;-65
2023/06/18 04:51:16;;;;;;;12.15;9.35;;;;;;;18.35;90.82;99750.91;5056863;28;20029;-65
2023/06/18 04:53:41;;;;;;;12.43;9.25;;;;;;;18.49;90.90;99741.88;5054631;28;20117;-65
2023/06/18 04:56:08;;;;;;;14.85;9.70;;;;;;;18.63;90.73;99744.50;5055497;28;20036;-65
2023/06/18 04:58:36;;;;;;;14.30;9.15;;;;;;;18.73;89.97;99741.03;5055423;28;20090;-65
2023/06/18 05:01:02;;;;;;;15.75;9.25;;;;;;;18.79;88.34;99737.94;5054978;28;20073;-65
2023/06/18 05:03:28;;;;;;;15.00;9.90;;;;;;;18.95;88.58;99740.38;5055722;28;20108;-65
2023/06/18 05:05:53;;;;;;;13.55;9.60;;;;;;;19.08;88.10;99742.09;5055019;28;20143;-65
2023/06/18 05:08:19;;;;;;;14.70;9.88;;;;;;;19.20;87.49;99745.75;5055933;28;20087;-65
2023/06/18 05:10:45;;;;;;;18.50;9.80;;;;;;;19.28;86.98;99743.34;5057615;28;20226;-65
2023/06/18 05:13:11;;;;;;;13.85;9.85;;;;;;;19.39;87.07;99740.75;5055941;28;20021;-65
2023/06/18 05:15:37;;;;;;;15.95;9.95;;;;;;;19.51;86.66;99739.88;5055614;28;20064;-65
2023/06/18 05:18:02;;;;;;;13.23;9.35;;;;;;;19.66;85.77;99733.34;5056717;28;20710;-65
2023/06/18 05:20:28;;;;;;;14.82;9.32;;;;;;;19.79;84.50;99747.66;5055470;28;20500;-65
2023/06/18 05:22:53;;;;;;;14.43;9.38;;;;;;;19.80;82.51;99735.91;5056378;28;20770;-65
2023/06/18 05:25:18;;;;;;;14.55;10.75;;;;;;;19.92;81.84;99744.94;5056787;28;20640;-65
2023/06/18 05:27:44;;;;;;;14.98;11.02;;;;;;;19.99;81.53;99744.34;5054987;28;20029;-65
2023/06/18 05:30:10;;;;;;;13.80;9.10;;;;;;;20.05;81.08;99754.66;5055594;28;20036;-65
2023/06/18 05:32:35;;;;;;;13.65;9.77;;;;;;;20.15;81.87;99752.16;5054079;28;20499;-64
2023/06/18 05:35:01;;;;;;;13.25;9.95;;;;;;;20.22;81.22;99743.50;5035901;28;20036;-65
2023/06/18 05:37:26;;;;;;;11.43;8.13;;;;;;;20.31;80.85;99752.75;5053490;28;20041;-65
2023/06/18 05:39:52;;;;;;;11.95;9.07;;;;;;;20.40;80.19;99758.28;5052007;28;20021;-65
2023/06/18 05:42:18;;;;;;;14.60;10.35;;;;;;;20.53;79.38;99759.06;5053282;28;20009;-65
2023/06/18 05:44:43;;;;;;;13.48;9.80;;;;;;;20.66;78.94;99754.44;5053579;28;20037;-65
2023/06/18 05:47:09;;;;;;;13.52;9.95;;;;;;;20.73;78.00;99752.97;5052302;28;20071;-65
2023/06/18 05:49:34;;;;;;;13.63;9.88;;;;;;;20.80;77.48;99758.75;5052445;28;20041;-65
2023/06/18 05:52:00;;;;;;;12.20;9.40;;;;;;;20.89;77.21;99761.59;5053819;28;20025;-65
2023/06/18 05:54:26;;;;;;;15.23;10.35;;;;;;;21.00;77.12;99762.63;5053783;28;20037;-65
2023/06/18 05:56:51;;;;;;;16.85;11.75;;;;;;;21.10;77.72;99763.63;5055078;28;20040;-65
2023/06/18 05:59:17;;;;;;;13.88;10.25;;;;;;;21.00;76.38;99730.19;5054069;28;20125;-65
2023/06/18 06:01:43;;;;;;;13.20;9.20;;;;;;;21.31;76.07;99768.19;5055323;28;20068;-65
2023/06/18 06:04:08;;;;;;;13.25;10.25;;;;;;;21.43;75.01;99763.63;5055111;28;20036;-65
2023/06/18 06:06:34;;;;;;;13.68;9.32;;;;;;;21.54;74.06;99763.63;5054585;28;20389;-65
2023/06/18 06:09:00;;;;;;;16.48;9.48;;;;;;;21.70;74.87;99772.19;5055289;28;20032;-65
2023/06/18 06:11:26;;;;;;;15.30;9.48;;;;;;;21.81;74.31;99772.22;5055297;28;20028;-65
2023/06/18 06:13:52;;;;;;;11.68;9.60;;;;;;;21.98;73.96;99768.97;5055077;28;20537;-65
2023/06/18 06:16:17;;;;;;;12.95;9.32;;;;;;;22.17;73.92;99774.59;5043695;28;20179;-65
2023/06/18 06:18:42;;;;;;;12.35;8.48;;;;;;;22.33;73.54;99764.16;5035197;28;20032;-65
2023/06/18 06:21:08;;;;;;;12.40;8.65;;;;;;;22.54;72.70;99772.34;5053062;28;20078;-65
2023/06/18 06:23:34;;;;;;;14.43;9.13;;;;;;;22.67;71.67;99771.16;5056814;28;20029;-65
2023/06/18 06:26:00;;;;;;;14.77;9.73;;;;;;;22.78;72.16;99768.41;5057117;28;20622;-64
2023/06/18 06:28:25;;;;;;;13.20;9.88;;;;;;;22.85;72.35;99766.03;5056899;28;20036;-64
2023/06/18 06:30:51;;;;;;;16.77;9.40;;;;;;;23.08;71.14;99768.44;5050941;28;20017;-64
2023/06/18 06:33:16;;;;;;;12.32;9.35;;;;;;;23.26;70.04;99772.28;5047455;28;20111;-64
2023/06/18 06:35:42;;;;;;;12.32;9.13;;;;;;;23.44;69.41;99781.50;5040591;28;20036;-65
2023/06/18 06:38:07;;;;;;;11.18;8.55;;;;;;;23.59;69.41;99778.41;5058257;28;20063;-65
2023/06/18 06:40:33;;;;;;;15.93;8.80;;;;;;;23.70;67.51;99781.03;5058087;28;20040;-65
2023/06/18 06:42:58;;;;;;;12.27;9.35;;;;;;;23.77;67.47;99782.19;5059885;28;20052;-65
2023/06/18 06:45:24;;;;;;;14.27;9.60;;;;;;;24.02;66.36;99792.59;5056450;28;20107;-65
2023/06/18 06:47:49;;;;;;;13.63;8.57;;;;;;;24.23;66.30;99794.19;5058353;28;20036;-65
2023/06/18 06:50:15;;;;;;;10.93;8.10;;;;;;;24.41;66.31;99788.91;5058820;28;20033;-65
2023/06/18 06:52:41;;;;;;;11.90;7.88;;;;;;;24.39;65.38;99796.34;5056728;28;20116;-65
2023/06/18 06:55:06;;;;;;;13.07;7.65;;;;;;;24.56;62.60;99793.75;5054195;28;20120;-65
2023/06/18 06:57:32;;;;;;;10.65;7.90;;;;;;;24.71;62.10;99796.97;5055556;28;20035;-64
2023/06/18 06:59:57;;;;;;;10.68;8.07;;;;;;;24.85;61.52;99799.22;5053164;28;20036;-65
2023/06/18 07:02:23;;;;;;;12.57;8.20;;;;;;;25.06;59.91;99802.63;5052153;28;20045;-63
2023/06/18 07:04:48;;;;;;;12.60;7.78;;;;;;;25.20;58.20;99799.47;5050387;28;20029;-66
2023/06/18 07:07:14;;;;;;;10.48;7.90;;;;;;;25.37;57.64;99795.13;5039147;28;20445;-66
2023/06/18 07:09:40;;;;;;;10.65;7.82;;;;;;;25.55;56.91;99805.09;5030628;28;20029;-66
2023/06/18 07:12:06;;;;;;;12.07;7.55;;;;;;;25.71;54.44;99802.59;5038068;28;20098;-66
2023/06/18 07:14:32;;;;;;;9.70;7.05;;;;;;;25.75;49.78;99801.28;5049380;28;20072;-66
2023/06/18 07:16:58;;;;;;;12.32;7.85;;;;;;;25.82;50.83;99790.63;5049137;28;20492;-65
2023/06/18 07:19:23;;;;;;;11.05;8.00;;;;;;;25.95;52.57;99802.03;5049213;28;20107;-65
2023/06/18 07:21:50;;;;;;;10.98;7.88;;;;;;;26.16;52.50;99801.78;5048348;28;20039;-65
2023/06/18 07:24:16;;;;;;;10.05;7.97;;;;;;;26.32;50.96;99799.22;5049214;28;20060;-65
2023/06/18 07:26:41;;;;;;;10.63;8.25;;;;;;;26.33;50.45;99801.81;5048837;28;20433;-64
2023/06/18 07:29:06;;;;;;;12.35;8.30;;;;;;;26.43;50.81;99802.59;5049119;28;20115;-64
2023/06/18 07:31:32;;;;;;;14.48;8.27;;;;;;;26.65;49.53;99812.19;5049827;28;20469;-65
2023/06/18 07:33:57;;;;;;;12.57;8.55;;;;;;;26.96;47.97;99799.84;5049118;28;20112;-65
2023/06/18 07:36:23;;;;;;;9.75;7.70;;;;;;;26.96;49.08;99806.19;5049557;28;20504;-64
2023/06/18 07:38:48;;;;;;;13.25;8.02;;;;;;;26.94;49.55;99801.88;5049223;28;20040;-64
2023/06/18 07:41:14;;;;;;;10.85;8.05;;;;;;;27.31;49.25;99809.88;5048302;28;20392;-64
2023/06/18 07:43:40;;;;;;;10.18;7.57;;;;;;;27.62;48.00;99798.28;5049601;28;20029;-64
2023/06/18 07:46:06;;;;;;;11.60;7.63;;;;;;;27.75;47.33;99801.41;5048710;28;20039;-64
2023/06/18 07:48:32;;;;;;;10.02;8.10;;;;;;;27.85;47.00;99807.63;5049745;28;20024;-64
2023/06/18 07:50:57;;;;;;;11.40;7.25;;;;;;;28.24;46.22;99805.19;5047029;28;20477;-64
2023/06/18 07:53:23;;;;;;;9.70;7.32;;;;;;;28.38;45.46;99804.56;5049329;28;20028;-64
2023/06/18 07:55:48;;;;;;;10.10;7.38;;;;;;;28.68;44.77;99809.44;5049495;28;20025;-64
2023/06/18 07:58:14;;;;;;;10.10;7.40;;;;;;;28.91;42.65;99804.13;5048415;28;20467;-64
2023/06/18 08:00:39;;;;;;;12.57;7.90;;;;;;;28.69;42.61;99813.03;5047100;28;20037;-63
2023/06/18 08:03:05;;;;;;;9.35;7.18;;;;;;;28.80;44.12;99807.22;5048390;28;20143;-64
2023/06/18 08:05:30;;;;;;;10.30;7.05;;;;;;;29.09;43.93;99796.63;5048371;28;20492;-64
2023/06/18 08:07:56;;;;;;;10.82;7.38;;;;;;;29.30;43.19;99789.59;5047720;28;20103;-63
2023/06/18 08:10:22;;;;;;;8.10;6.57;;;;;;;29.48;42.82;99801.19;5029253;28;20028;-64
2023/06/18 08:12:48;;;;;;;9.23;6.40;;;;;;;29.65;41.92;99799.25;5048324;28;20029;-64
2023/06/18 08:15:13;;;;;;;9.15;7.22;;;;;;;30.05;41.39;99790.88;5048920;28;20029;-65
2023/06/18 08:17:39;;;;;;;9.27;7.22;;;;;;;30.18;39.78;99779.34;5048371;28;20025;-64
2023/06/18 08:20:05;;;;;;;10.23;6.43;;;;;;;30.57;40.18;99786.47;5048079;28;20037;-64
2023/06/18 08:22:31;;;;;;;8.07;6.25;;;;;;;30.83;39.57;99781.50;5048298;28;20153;-64
2023/06/18 08:24:56;;;;;;;9.18;6.05;;;;;;;30.67;39.09;99778.00;5047609;28;20025;-64
2023/06/18 08:27:22;;;;;;;10.25;6.30;;;;;;;30.89;38.60;99783.50;5048230;28;20025;-64
2023/06/18 08:29:47;;;;;;;7.70;6.10;;;;;;;31.22;38.16;99780.47;5048529;28;20029;-64
2023/06/18 08:32:13;;;;;;;9.02;6.82;;;;;;;31.75;37.07;99772.81;5048272;28;20078;-64
2023/06/18 08:34:42;;;;;;;7.82;6.22;;;;;;;32.02;35.76;99768.56;5047698;28;20754;-64
2023/06/18 08:37:11;;;;;;;10.15;6.13;;;;;;;32.11;36.79;99771.00;5048564;28;20021;-64
2023/06/18 08:39:37;;;;;;;12.90;7.00;;;;;;;32.14;36.33;99767.84;5045367;28;20039;-64
2023/06/18 08:42:03;;;;;;;9.57;7.05;;;;;;;32.32;36.51;99764.69;5048001;28;20021;-64
2023/06/18 08:44:30;;;;;;;8.77;6.53;;;;;;;32.58;37.09;99759.50;5045877;28;20056;-64
2023/06/18 08:47:00;;;;;;;8.50;5.43;;;;;;;32.76;35.21;99765.41;5047117;28;20037;-64
2023/06/18 08:49:27;;;;;;;10.00;6.55;;;;;;;33.17;34.69;99760.91;5048297;28;20055;-64
2023/06/18 08:51:54;;;;;;;8.48;5.82;;;;;;;33.27;33.53;99758.66;5047265;28;20052;-64
2023/06/18 08:54:22;;;;;;;7.53;5.70;;;;;;;33.07;33.54;99765.91;5048135;28;20033;-64
2023/06/18 08:56:53;;;;;;;9.00;5.95;;;;;;;33.25;33.21;99752.47;5048038;28;20029;-64
2023/06/18 08:59:20;;;;;;;9.68;5.90;;;;;;;33.31;34.05;99756.34;5046357;28;20029;-64
2023/06/18 09:01:46;;;;;;;8.02;4.90;;;;;;;33.51;32.78;99759.28;5047538;28;20135;-64
2023/06/18 09:04:13;;;;;;;8.98;5.72;;;;;;;33.52;32.24;99758.22;5048245;28;20476;-64
2023/06/18 09:06:39;;;;;;;7.13;5.55;;;;;;;33.55;31.97;99757.78;5046740;28;20040;-64
2023/06/18 09:09:05;;;;;;;9.93;5.05;;;;;;;33.74;31.96;99754.31;5037727;28;20049;-64
2023/06/18 09:11:31;;;;;;;9.00;4.97;;;;;;;33.83;32.85;99750.31;5028280;28;20156;-64
2023/06/18 09:13:57;;;;;;;7.75;5.45;;;;;;;33.83;32.33;99744.78;5042684;28;20028;-65
2023/06/18 09:16:22;;;;;;;7.93;5.15;;;;;;;33.99;30.52;99744.47;5047464;28;20024;-64
2023/06/18 09:18:48;;;;;;;6.93;4.90;;;;;;;33.97;30.32;99738.31;5047971;28;20025;-64
2023/06/18 09:21:37;;;;;;;8.07;4.80;;;;;;;34.14;31.29;99748.78;5047875;28;20018;-64
2023/06/18 09:24:05;;;;;;;6.38;4.72;;;;;;;34.15;30.94;99741.34;5049290;28;20542;-64
2023/06/18 09:26:33;;;;;;;7.20;5.00;;;;;;;34.35;30.08;99734.00;5031453;28;20040;-64
2023/06/18 09:29:03;;;;;;;6.72;4.93;;;;;;;34.63;32.39;99737.44;5031340;28;20095;-64
2023/06/18 09:31:28;;;;;;;7.85;5.38;;;;;;;34.66;32.59;99726.00;5037909;28;20477;-64
2023/06/18 09:33:53;;;;;;;8.32;5.10;;;;;;;34.66;32.17;99728.75;5036540;28;20033;-64
2023/06/18 09:36:19;;;;;;;6.43;4.53;;;;;;;34.78;32.54;99724.28;5039569;28;20021;-64
2023/06/18 09:38:44;;;;;;;7.05;5.18;;;;;;;35.13;33.46;99720.28;5050935;28;20025;-64
2023/06/18 09:41:15;;;;;;;6.88;5.03;;;;;;;35.51;31.19;99721.31;5042562;28;20385;-64
2023/06/18 09:43:43;;;;;;;7.45;5.32;;;;;;;35.41;30.91;99723.66;5039612;28;20048;-64
2023/06/18 09:46:09;;;;;;;8.35;4.95;;;;;;;35.38;30.40;99721.34;5050462;28;20711;-64
2023/06/18 09:48:41;;;;;;;8.07;4.97;;;;;;;35.52;31.15;99720.22;5046848;28;20642;-64
2023/06/18 09:51:06;;;;;;;7.88;4.80;;;;;;;35.79;30.98;99724.63;5042939;28;20142;-64
2023/06/18 09:53:33;;;;;;;6.65;4.97;;;;;;;36.03;30.13;99720.28;5050965;28;20067;-64
2023/06/18 09:56:09;;;;;;;9.25;4.90;;;;;;;36.32;31.06;99724.38;5049425;28;20074;-64
2023/06/18 09:58:48;;;;;;;6.47;4.50;;;;;;;36.49;30.28;99717.28;5046965;28;20029;-64
2023/06/18 10:01:15;;;;;;;7.22;3.88;;;;;;;36.86;27.66;99716.38;5039627;28;20061;-64
2023/06/18 10:03:42;;;;;;;5.50;4.07;;;;;;;37.08;27.49;99717.69;5050078;28;20033;-64
2023/06/18 10:06:11;;;;;;;8.02;3.95;;;;;;;36.92;28.37;99715.50;5043891;28;20411;-64
2023/06/18 10:08:40;;;;;;;5.50;3.95;;;;;;;36.94;28.53;99718.88;5049681;28;20503;-64
2023/06/18 10:11:08;;;;;;;6.00;4.10;;;;;;;37.20;29.33;99718.63;5050009;28;20036;-65
2023/06/18 10:13:36;;;;;;;7.68;4.35;;;;;;;37.36;27.94;99718.09;5050357;28;20029;-65
2023/06/18 10:16:03;;;;;;;5.68;4.00;;;;;;;37.45;27.07;99721.44;5044546;28;20756;-65
2023/06/18 10:18:30;;;;;;;7.15;4.25;;;;;;;37.27;26.59;99707.53;5041444;28;20040;-65
2023/06/18 10:21:02;;;;;;;8.63;4.25;;;;;;;37.41;27.81;99715.47;5030238;28;20112;-65
2023/06/18 10:23:30;;;;;;;8.43;4.47;;;;;;;37.03;28.18;99702.81;5035114;28;20535;-65
2023/06/18 10:25:58;;;;;;;5.97;3.47;;;;;;;37.03;25.99;99711.13;5047746;28;20029;-65
2023/06/18 10:28:24;;;;;;;6.78;4.43;;;;;;;37.20;26.84;99701.16;5043184;28;20079;-65
2023/06/18 10:30:50;;;;;;;6.75;4.60;;;;;;;37.30;26.97;99702.34;5030761;28;20049;-65
2023/06/18 10:33:16;;;;;;;7.18;4.20;;;;;;;37.53;24.16;99701.69;5040501;28;20037;-65
2023/06/18 10:35:43;;;;;;;7.22;3.65;;;;;;;38.07;24.80;99699.72;5031564;28;20029;-65
2023/06/18 10:38:09;;;;;;;6.15;3.75;;;;;;;38.36;24.32;99691.66;5049215;28;20031;-65
2023/06/18 10:40:38;;;;;;;7.18;3.75;;;;;;;38.69;24.37;99692.03;5048168;28;20052;-65
2023/06/18 10:43:06;;;;;;;5.20;3.40;;;;;;;38.50;22.43;99693.16;5047741;28;20029;-66
2023/06/18 10:45:32;;;;;;;4.90;3.20;;;;;;;38.37;22.18;99693.38;5041508;28;20029;-65
2023/06/18 10:48:19;;;;;;;6.13;3.78;;;;;;;38.44;23.64;99678.28;5035472;28;20037;-65
2023/06/18 10:51:13;;;;;;;6.13;3.58;;;;;;;38.89;24.96;99684.19;5031838;28;20101;-65
2023/06/18 10:53:39;;;;;;;7.43;3.40;;;;;;;39.27;23.99;99679.91;5045356;28;20020;-65
2023/06/18 10:56:05;;;;;;;6.30;3.60;;;;;;;39.09;21.97;99670.81;5048882;28;20031;-65
2023/06/18 10:58:35;;;;;;;6.88;3.42;;;;;;;38.97;22.57;99678.28;5035926;28;20033;-65
2023/06/18 11:01:00;;;;;;;4.70;3.05;;;;;;;38.96;22.31;99671.03;5029637;28;20083;-65
2023/06/18 11:03:37;;;;;;;5.10;3.30;;;;;;;39.14;21.81;99668.16;5037307;28;20032;-65
2023/06/18 11:06:08;;;;;;;5.38;3.17;;;;;;;39.18;23.59;99661.00;5029592;28;20026;-65
2023/06/18 11:08:35;;;;;;;6.03;3.42;;;;;;;39.15;23.12;99653.16;5035932;28;20057;-66
2023/06/18 11:11:10;;;;;;;5.80;3.58;;;;;;;39.26;23.24;99660.66;5049052;28;20029;-66
2023/06/18 11:13:38;;;;;;;8.77;3.58;;;;;;;39.38;22.36;99656.75;5045148;28;20037;-66
2023/06/18 11:16:06;;;;;;;7.63;3.25;;;;;;;39.68;23.71;99656.63;5048122;28;20029;-65
2023/06/18 11:18:32;;;;;;;5.90;3.60;;;;;;;39.65;21.91;99653.47;5041493;28;20031;-65
2023/06/18 11:20:58;;;;;;;4.75;3.53;;;;;;;39.51;21.32;99652.88;5044259;28;20040;-65
2023/06/18 11:23:25;;;;;;;5.22;3.03;;;;;;;39.83;21.87;99648.56;5042116;28;20037;-66
2023/06/18 11:25:51;;;;;;;6.30;3.35;;;;;;;40.22;22.10;99644.91;5036918;28;20040;-65